createdAt,value
2018-12-04T00:00:31.455Z,995.96
2018-12-04T00:01:31.494Z,995.93
2018-12-04T00:02:31.432Z,995.95
2018-12-04T00:03:31.427Z,995.96
2018-12-04T00:04:31.416Z,996.01
2018-12-04T00:05:31.399Z,995.99
2018-12-04T00:06:31.388Z,996.01
2018-12-04T00:07:31.378Z,996.03
2018-12-04T00:08:31.365Z,996.00
2018-12-04T00:09:31.361Z,996.03
2018-12-04T00:10:31.342Z,996.03
2018-12-04T00:11:31.336Z,996.07
2018-12-04T00:12:31.327Z,996.03
2018-12-04T00:13:31.320Z,996.07
2018-12-04T00:14:31.322Z,996.09
2018-12-04T00:15:31.290Z,996.09
2018-12-04T00:16:31.276Z,996.07
2018-12-04T00:17:31.270Z,996.10
2018-12-04T00:18:31.264Z,996.07
2018-12-04T00:19:31.251Z,996.06
2018-12-04T00:20:31.239Z,996.02
2018-12-04T00:21:31.239Z,996.10
2018-12-04T00:22:31.214Z,996.07
2018-12-04T00:23:31.208Z,996.01
2018-12-04T00:24:31.197Z,996.12
2018-12-04T00:25:31.176Z,996.15
2018-12-04T00:26:31.169Z,996.13
2018-12-04T00:27:31.152Z,996.24
2018-12-04T00:28:31.370Z,996.19
2018-12-04T00:29:31.132Z,996.17
2018-12-04T00:30:31.118Z,996.22
2018-12-04T00:31:31.107Z,996.26
2018-12-04T00:32:31.102Z,996.29
2018-12-04T00:33:31.089Z,996.19
2018-12-04T00:34:31.079Z,996.21
2018-12-04T00:35:31.064Z,996.25
2018-12-04T00:36:31.056Z,996.30
2018-12-04T00:37:31.039Z,996.34
2018-12-04T00:38:31.028Z,996.29
2018-12-04T00:39:31.019Z,996.38
2018-12-04T00:40:31.013Z,996.39
2018-12-04T00:41:30.995Z,996.35
2018-12-04T00:42:30.985Z,996.30
2018-12-04T00:43:30.973Z,996.34
2018-12-04T00:44:30.964Z,996.41
2018-12-04T00:45:30.951Z,996.38
2018-12-04T00:46:30.938Z,996.40
2018-12-04T00:47:30.927Z,996.39
2018-12-04T00:48:30.917Z,996.42
2018-12-04T00:49:30.908Z,996.40
2018-12-04T00:50:30.893Z,996.39
2018-12-04T00:51:30.886Z,996.46
2018-12-04T00:52:30.874Z,996.49
2018-12-04T00:53:30.860Z,996.50
2018-12-04T00:54:30.861Z,996.52
2018-12-04T00:55:30.837Z,996.49
2018-12-04T00:56:30.830Z,996.54
2018-12-04T00:57:30.815Z,996.53
2018-12-04T00:58:30.809Z,996.54
2018-12-04T00:59:30.793Z,996.55
2018-12-04T01:00:30.784Z,996.55
2018-12-04T01:01:30.771Z,996.56
2018-12-04T01:02:30.760Z,996.63
2018-12-04T01:03:30.752Z,996.69
2018-12-04T01:04:30.736Z,996.70
2018-12-04T01:05:30.727Z,996.73
2018-12-04T01:06:30.714Z,996.68
2018-12-04T01:07:30.709Z,996.74
2018-12-04T01:08:30.699Z,996.73
2018-12-04T01:09:30.683Z,996.76
2018-12-04T01:10:30.671Z,996.72
2018-12-04T01:11:30.861Z,996.70
2018-12-04T01:12:30.669Z,996.73
2018-12-04T01:13:30.648Z,996.73
2018-12-04T01:14:30.632Z,996.69
2018-12-04T01:15:30.619Z,996.64
2018-12-04T01:16:30.617Z,996.68
2018-12-04T01:17:30.592Z,996.73
2018-12-04T01:18:30.587Z,996.61
2018-12-04T01:19:30.569Z,996.69
2018-12-04T01:20:30.566Z,996.63
2018-12-04T01:21:30.547Z,996.59
2018-12-04T01:22:30.534Z,996.65
2018-12-04T01:23:30.526Z,996.60
2018-12-04T01:24:30.515Z,996.62
2018-12-04T01:25:30.501Z,996.64
2018-12-04T01:26:30.492Z,996.63
2018-12-04T01:27:30.480Z,996.67
2018-12-04T01:28:30.469Z,996.65
2018-12-04T01:29:30.458Z,996.74
2018-12-04T01:30:30.448Z,996.68
2018-12-04T01:31:30.437Z,996.79
2018-12-04T01:32:30.424Z,996.74
2018-12-04T01:33:30.479Z,996.72
2018-12-04T01:34:30.451Z,996.75
2018-12-04T01:35:30.390Z,996.74
2018-12-04T01:36:30.380Z,996.73
2018-12-04T01:37:30.369Z,996.74
2018-12-04T01:38:30.355Z,996.80
2018-12-04T01:39:30.349Z,996.77
2018-12-04T01:40:30.340Z,996.78
2018-12-04T01:41:30.322Z,996.79
2018-12-04T01:42:30.313Z,996.80
2018-12-04T01:43:30.300Z,996.75
2018-12-04T01:44:30.288Z,996.81
2018-12-04T01:45:30.280Z,996.75
2018-12-04T01:46:30.265Z,996.74
2018-12-04T01:47:30.254Z,996.77
2018-12-04T01:48:30.246Z,996.76
2018-12-04T01:49:30.238Z,996.80
2018-12-04T01:50:30.223Z,996.76
2018-12-04T01:51:30.210Z,996.80
2018-12-04T01:52:30.210Z,996.83
2018-12-04T01:53:30.186Z,996.79
2018-12-04T01:54:30.182Z,996.75
2018-12-04T01:55:30.180Z,996.80
2018-12-04T01:56:30.154Z,996.78
2018-12-04T01:57:30.140Z,996.79
2018-12-04T01:58:30.130Z,996.76
2018-12-04T01:59:30.137Z,996.82
2018-12-04T02:00:30.113Z,996.80
2018-12-04T02:01:30.103Z,996.79
2018-12-04T02:02:30.087Z,996.76
2018-12-04T02:03:30.074Z,996.73
2018-12-04T02:04:30.073Z,996.76
2018-12-04T02:05:30.053Z,996.72
2018-12-04T02:06:30.051Z,996.72
2018-12-04T02:07:30.029Z,996.76
2018-12-04T02:08:30.017Z,996.73
2018-12-04T02:09:30.012Z,996.75
2018-12-04T02:10:29.997Z,996.75
2018-12-04T02:11:29.989Z,996.80
2018-12-04T02:12:29.979Z,996.81
2018-12-04T02:13:29.960Z,996.78
2018-12-04T02:14:29.949Z,996.80
2018-12-04T02:15:29.940Z,996.80
2018-12-04T02:16:29.929Z,996.84
2018-12-04T02:17:29.918Z,996.79
2018-12-04T02:18:29.907Z,996.83
2018-12-04T02:19:29.901Z,996.79
2018-12-04T02:20:29.891Z,996.76
2018-12-04T02:21:29.872Z,996.78
2018-12-04T02:22:29.860Z,996.74
2018-12-04T02:23:29.903Z,996.82
2018-12-04T02:24:29.837Z,996.83
2018-12-04T02:25:29.826Z,996.84
2018-12-04T02:26:29.816Z,996.86
2018-12-04T02:27:29.804Z,996.81
2018-12-04T02:28:29.793Z,996.90
2018-12-04T02:29:29.781Z,996.87
2018-12-04T02:30:29.776Z,996.85
2018-12-04T02:31:29.758Z,996.95
2018-12-04T02:32:29.750Z,996.95
2018-12-04T02:33:29.739Z,996.88
2018-12-04T02:34:29.731Z,996.93
2018-12-04T02:35:29.715Z,996.98
2018-12-04T02:36:29.708Z,996.94
2018-12-04T02:37:29.694Z,996.99
2018-12-04T02:38:29.690Z,996.99
2018-12-04T02:39:29.670Z,997.01
2018-12-04T02:40:29.670Z,997.05
2018-12-04T02:41:29.657Z,997.04
2018-12-04T02:42:29.646Z,997.04
2018-12-04T02:43:29.630Z,997.13
2018-12-04T02:44:29.617Z,997.14
2018-12-04T02:45:29.619Z,997.12
2018-12-04T02:46:29.607Z,997.15
2018-12-04T02:47:29.581Z,997.17
2018-12-04T02:48:29.572Z,997.16
2018-12-04T02:49:29.570Z,997.20
2018-12-04T02:50:29.556Z,997.16
2018-12-04T02:51:29.580Z,997.28
2018-12-04T02:52:29.539Z,997.21
2018-12-04T02:53:29.522Z,997.23
2018-12-04T02:54:29.502Z,997.27
2018-12-04T02:55:29.499Z,997.22
2018-12-04T02:56:29.479Z,997.32
2018-12-04T02:57:29.485Z,997.20
2018-12-04T02:58:29.496Z,997.40
2018-12-04T02:59:29.488Z,997.35
2018-12-04T03:00:29.434Z,997.40
2018-12-04T03:01:29.432Z,997.42
2018-12-04T03:02:29.433Z,997.40
2018-12-04T03:03:29.437Z,997.47
2018-12-04T03:04:29.442Z,997.43
2018-12-04T03:05:29.379Z,997.50
2018-12-04T03:06:29.384Z,997.48
2018-12-04T03:07:29.356Z,997.58
2018-12-04T03:08:29.344Z,997.54
2018-12-04T03:09:29.333Z,997.62
2018-12-04T03:10:29.327Z,997.65
2018-12-04T03:11:29.313Z,997.70
2018-12-04T03:12:29.300Z,997.75
2018-12-04T03:13:29.290Z,997.82
2018-12-04T03:14:29.277Z,997.93
2018-12-04T03:15:29.266Z,997.93
2018-12-04T03:16:29.261Z,997.99
2018-12-04T03:17:29.251Z,998.03
2018-12-04T03:18:29.235Z,998.08
2018-12-04T03:19:29.229Z,998.06
2018-12-04T03:20:29.234Z,998.20
2018-12-04T03:21:29.201Z,998.20
2018-12-04T03:22:29.193Z,998.20
2018-12-04T03:23:29.187Z,998.12
2018-12-04T03:24:29.165Z,998.18
2018-12-04T03:26:29.167Z,998.32
2018-12-04T03:28:29.128Z,998.38
2018-12-04T03:30:29.110Z,998.56
2018-12-04T03:31:29.108Z,998.50
2018-12-04T03:32:29.077Z,998.52
2018-12-04T03:33:29.069Z,998.58
2018-12-04T03:34:29.070Z,998.66
2018-12-04T03:36:29.032Z,998.73
2018-12-04T03:38:29.009Z,998.73
2018-12-04T03:40:28.985Z,998.77
2018-12-04T03:41:28.974Z,998.91
2018-12-04T03:44:28.946Z,999.00
2018-12-04T03:45:28.938Z,999.02
2018-12-04T03:46:28.923Z,999.08
2018-12-04T03:47:28.909Z,999.13
2018-12-04T03:48:28.898Z,999.10
2018-12-04T03:49:28.885Z,999.07
2018-12-04T03:51:28.879Z,999.17
2018-12-04T03:52:28.851Z,999.17
2018-12-04T03:53:28.862Z,999.15
2018-12-04T03:54:28.829Z,999.25
2018-12-04T03:57:28.798Z,999.30
2018-12-04T03:58:28.782Z,999.33
2018-12-04T03:59:28.774Z,999.37
2018-12-04T04:00:28.760Z,999.44
2018-12-04T04:01:28.748Z,999.46
2018-12-04T04:02:28.739Z,999.47
2018-12-04T04:04:28.717Z,999.58
2018-12-04T04:06:28.694Z,999.58
2018-12-04T04:07:28.697Z,999.60
2018-12-04T04:08:28.675Z,999.60
2018-12-04T04:09:28.660Z,999.63
2018-12-04T04:11:28.636Z,999.69
2018-12-04T04:12:28.624Z,999.64
2018-12-04T04:14:28.603Z,999.73
2018-12-04T04:15:28.593Z,999.78
2018-12-04T04:17:28.583Z,999.86
2018-12-04T04:18:28.561Z,999.81
2018-12-04T04:19:28.550Z,999.92
2018-12-04T04:20:28.534Z,999.87
2018-12-04T04:21:28.524Z,999.89
2018-12-04T04:22:28.510Z,999.89
2018-12-04T04:23:28.499Z,999.93
2018-12-04T04:24:28.488Z,1000.01
2018-12-04T04:25:28.477Z,1000.01
2018-12-04T04:26:28.463Z,1000.04
2018-12-04T04:27:28.453Z,1000.04
2018-12-04T04:28:28.441Z,1000.07
2018-12-04T04:29:28.430Z,1000.10
2018-12-04T04:30:28.421Z,1000.13
2018-12-04T04:31:28.408Z,1000.10
2018-12-04T04:32:28.397Z,1000.14
2018-12-04T04:33:28.389Z,1000.19
2018-12-04T04:34:28.376Z,1000.23
2018-12-04T04:35:28.365Z,1000.20
2018-12-04T04:36:28.352Z,1000.33
2018-12-04T04:37:28.339Z,1000.24
2018-12-04T04:38:28.329Z,1000.31
2018-12-04T04:39:28.323Z,1000.35
2018-12-04T04:40:28.305Z,1000.44
2018-12-04T04:41:28.299Z,1000.41
2018-12-04T04:42:28.286Z,1000.47
2018-12-04T04:43:28.279Z,1000.46
2018-12-04T04:44:28.259Z,1000.49
2018-12-04T04:45:28.253Z,1000.51
2018-12-04T04:46:28.243Z,1000.61
2018-12-04T04:47:28.226Z,1000.55
2018-12-04T04:48:28.224Z,1000.67
2018-12-04T04:49:28.204Z,1000.65
2018-12-04T04:50:28.198Z,1000.66
2018-12-04T04:51:28.182Z,1000.71
2018-12-04T04:52:28.175Z,1000.70
2018-12-04T04:53:28.158Z,1000.74
2018-12-04T04:54:28.156Z,1000.78
2018-12-04T04:55:28.135Z,1000.70
2018-12-04T04:56:28.127Z,1000.84
2018-12-04T04:58:28.101Z,1000.89
2018-12-04T04:59:28.090Z,1000.89
2018-12-04T05:00:28.083Z,1000.90
2018-12-04T05:01:28.065Z,1000.92
2018-12-04T05:02:28.053Z,1001.02
2018-12-04T05:03:28.044Z,1000.96
2018-12-04T05:04:28.031Z,1000.98
2018-12-04T05:05:28.026Z,1000.99
2018-12-04T05:06:28.006Z,1001.00
2018-12-04T05:07:27.994Z,1001.08
2018-12-04T05:08:27.986Z,1001.04
2018-12-04T05:09:27.971Z,1001.14
2018-12-04T05:10:27.961Z,1001.21
2018-12-04T05:11:27.948Z,1001.21
2018-12-04T05:12:27.937Z,1001.15
2018-12-04T05:13:27.930Z,1001.23
2018-12-04T05:14:27.918Z,1001.28
2018-12-04T05:15:27.903Z,1001.30
2018-12-04T05:16:27.897Z,1001.28
2018-12-04T05:17:27.879Z,1001.31
2018-12-04T05:18:27.870Z,1001.35
2018-12-04T05:19:27.860Z,1001.49
2018-12-04T05:20:27.846Z,1001.47
2018-12-04T05:21:27.835Z,1001.49
2018-12-04T05:22:27.820Z,1001.51
2018-12-04T05:23:27.808Z,1001.58
2018-12-04T05:24:27.801Z,1001.59
2018-12-04T05:25:27.828Z,1001.57
2018-12-04T05:26:27.773Z,1001.61
2018-12-04T05:27:27.762Z,1001.67
2018-12-04T05:28:27.750Z,1001.72
2018-12-04T05:29:27.738Z,1001.78
2018-12-04T05:30:27.728Z,1001.76
2018-12-04T05:31:27.719Z,1001.81
2018-12-04T05:32:27.704Z,1001.84
2018-12-04T05:33:27.693Z,1001.79
2018-12-04T05:34:27.683Z,1001.92
2018-12-04T05:35:27.671Z,1001.93
2018-12-04T05:36:27.665Z,1001.99
2018-12-04T05:37:27.650Z,1001.99
2018-12-04T05:38:27.636Z,1001.98
2018-12-04T05:39:27.622Z,1001.99
2018-12-04T05:40:27.612Z,1001.97
2018-12-04T05:41:27.598Z,1002.00
2018-12-04T05:42:27.590Z,1002.12
2018-12-04T05:43:27.579Z,1002.21
2018-12-04T05:44:27.563Z,1002.17
2018-12-04T05:45:27.553Z,1002.17
2018-12-04T05:46:27.539Z,1002.20
2018-12-04T05:47:27.532Z,1002.23
2018-12-04T05:48:27.539Z,1002.24
2018-12-04T05:49:27.509Z,1002.26
2018-12-04T05:50:27.492Z,1002.31
2018-12-04T05:51:27.483Z,1002.33
2018-12-04T05:52:27.469Z,1002.40
2018-12-04T05:53:27.457Z,1002.40
2018-12-04T05:54:27.450Z,1002.40
2018-12-04T05:55:27.435Z,1002.52
2018-12-04T05:56:27.428Z,1002.46
2018-12-04T05:57:27.410Z,1002.51
2018-12-04T05:58:27.398Z,1002.54
2018-12-04T05:59:27.392Z,1002.63
2018-12-04T06:00:27.380Z,1002.69
2018-12-04T06:01:27.368Z,1002.69
2018-12-04T06:02:27.351Z,1002.68
2018-12-04T06:03:27.339Z,1002.74
2018-12-04T06:04:27.331Z,1002.78
2018-12-04T06:05:27.320Z,1002.80
2018-12-04T06:06:27.310Z,1002.84
2018-12-04T06:07:27.292Z,1002.85
2018-12-04T06:08:27.287Z,1002.88
2018-12-04T06:09:27.277Z,1002.90
2018-12-04T06:10:27.258Z,1002.89
2018-12-04T06:11:27.245Z,1002.97
2018-12-04T06:12:27.234Z,1002.99
2018-12-04T06:13:27.224Z,1003.01
2018-12-04T06:14:27.213Z,1003.03
2018-12-04T06:15:27.199Z,1003.08
2018-12-04T06:16:27.188Z,1003.09
2018-12-04T06:17:27.176Z,1003.11
2018-12-04T06:18:27.162Z,1003.09
2018-12-04T06:19:27.156Z,1003.15
2018-12-04T06:20:27.141Z,1003.22
2018-12-04T06:21:27.133Z,1003.21
2018-12-04T06:22:27.117Z,1003.28
2018-12-04T06:23:27.126Z,1003.32
2018-12-04T06:24:27.094Z,1003.32
2018-12-04T06:25:27.083Z,1003.40
2018-12-04T06:26:27.072Z,1003.38
2018-12-04T06:27:27.059Z,1003.41
2018-12-04T06:28:27.046Z,1003.43
2018-12-04T06:29:27.040Z,1003.47
2018-12-04T06:30:27.024Z,1003.36
2018-12-04T06:31:27.012Z,1003.47
2018-12-04T06:32:27.000Z,1003.51
2018-12-04T06:33:26.994Z,1003.48
2018-12-04T06:34:26.976Z,1003.47
2018-12-04T06:35:26.966Z,1003.49
2018-12-04T06:36:26.953Z,1003.61
2018-12-04T06:37:26.942Z,1003.63
2018-12-04T06:38:26.933Z,1003.69
2018-12-04T06:39:27.121Z,1003.68
2018-12-04T06:40:26.907Z,1003.76
2018-12-04T06:41:26.896Z,1003.81
2018-12-04T06:42:26.884Z,1003.77
2018-12-04T06:43:26.872Z,1003.83
2018-12-04T06:44:26.863Z,1003.83
2018-12-04T06:45:26.851Z,1003.90
2018-12-04T06:46:26.845Z,1003.96
2018-12-04T06:47:26.826Z,1003.97
2018-12-04T06:48:26.815Z,1003.98
2018-12-04T06:49:26.808Z,1003.98
2018-12-04T06:50:26.795Z,1004.01
2018-12-04T06:51:26.806Z,1004.04
2018-12-04T06:52:26.769Z,1004.18
2018-12-04T06:53:26.758Z,1004.16
2018-12-04T06:54:26.745Z,1004.16
2018-12-04T06:55:26.736Z,1004.18
2018-12-04T06:56:26.726Z,1004.20
2018-12-04T06:57:26.717Z,1004.25
2018-12-04T06:58:26.709Z,1004.29
2018-12-04T06:59:26.692Z,1004.29
2018-12-04T07:00:26.674Z,1004.31
2018-12-04T07:01:26.670Z,1004.35
2018-12-04T07:02:26.651Z,1004.38
2018-12-04T07:03:26.640Z,1004.39
2018-12-04T07:04:26.629Z,1004.43
2018-12-04T07:05:26.616Z,1004.44
2018-12-04T07:06:26.606Z,1004.50
2018-12-04T07:07:26.595Z,1004.47
2018-12-04T07:08:26.586Z,1004.52
2018-12-04T07:09:26.578Z,1004.51
2018-12-04T07:10:26.562Z,1004.57
2018-12-04T07:11:26.547Z,1004.57
2018-12-04T07:12:26.538Z,1004.63
2018-12-04T07:13:26.529Z,1004.73
2018-12-04T07:14:26.512Z,1004.78
2018-12-04T07:15:26.499Z,1004.77
2018-12-04T07:16:26.488Z,1004.83
2018-12-04T07:17:26.478Z,1004.90
2018-12-04T07:18:26.471Z,1004.93
2018-12-04T07:19:26.452Z,1004.95
2018-12-04T07:20:26.442Z,1004.99
2018-12-04T07:21:26.437Z,1005.03
2018-12-04T07:22:26.418Z,1005.09
2018-12-04T07:23:26.411Z,1005.16
2018-12-04T07:24:26.395Z,1005.10
2018-12-04T07:25:26.383Z,1005.12
2018-12-04T07:26:26.374Z,1005.16
2018-12-04T07:27:26.362Z,1005.14
2018-12-04T07:28:26.351Z,1005.21
2018-12-04T07:29:26.337Z,1005.25
2018-12-04T07:30:26.325Z,1005.33
2018-12-04T07:31:26.313Z,1005.32
2018-12-04T07:32:26.300Z,1005.33
2018-12-04T07:33:26.290Z,1005.36
2018-12-04T07:34:26.277Z,1005.37
2018-12-04T07:35:26.265Z,1005.43
2018-12-04T07:36:26.255Z,1005.50
2018-12-04T07:37:26.244Z,1005.47
2018-12-04T07:38:26.231Z,1005.48
2018-12-04T07:39:26.219Z,1005.48
2018-12-04T07:40:26.206Z,1005.56
2018-12-04T07:41:26.196Z,1005.58
2018-12-04T07:42:26.185Z,1005.61
2018-12-04T07:43:26.172Z,1005.60
2018-12-04T07:44:26.159Z,1005.67
2018-12-04T07:45:26.152Z,1005.69
2018-12-04T07:46:26.135Z,1005.67
2018-12-04T07:47:26.138Z,1005.78
2018-12-04T07:48:26.118Z,1005.80
2018-12-04T07:49:26.144Z,1005.82
2018-12-04T07:50:26.095Z,1005.85
2018-12-04T07:51:26.079Z,1005.86
2018-12-04T07:52:26.067Z,1005.90
2018-12-04T07:53:26.055Z,1005.95
2018-12-04T07:54:26.046Z,1006.03
2018-12-04T07:55:26.031Z,1006.04
2018-12-04T07:56:26.020Z,1006.06
2018-12-04T07:57:26.007Z,1006.10
2018-12-04T07:58:25.996Z,1006.13
2018-12-04T07:59:25.992Z,1006.15
2018-12-04T08:00:25.979Z,1006.21
2018-12-04T08:01:25.965Z,1006.27
2018-12-04T08:02:25.953Z,1006.30
2018-12-04T08:03:26.024Z,1006.23
2018-12-04T08:04:25.925Z,1006.25
2018-12-04T08:05:25.915Z,1006.25
2018-12-04T08:06:25.902Z,1006.25
2018-12-04T08:07:25.890Z,1006.38
2018-12-04T08:08:25.881Z,1006.35
2018-12-04T08:09:25.866Z,1006.41
2018-12-04T08:10:25.856Z,1006.41
2018-12-04T08:11:25.843Z,1006.41
2018-12-04T08:12:25.840Z,1006.51
2018-12-04T08:13:25.824Z,1006.58
2018-12-04T08:14:25.848Z,1006.54
2018-12-04T08:15:25.796Z,1006.60
2018-12-04T08:16:25.803Z,1006.60
2018-12-04T08:17:25.772Z,1006.55
2018-12-04T08:18:25.759Z,1006.58
2018-12-04T08:19:25.759Z,1006.60
2018-12-04T08:20:25.741Z,1006.66
2018-12-04T08:21:25.732Z,1006.61
2018-12-04T08:22:25.716Z,1006.62
2018-12-04T08:23:25.704Z,1006.61
2018-12-04T08:24:25.691Z,1006.63
2018-12-04T08:25:25.678Z,1006.71
2018-12-04T08:26:25.668Z,1006.77
2018-12-04T08:28:25.650Z,1006.72
2018-12-04T08:29:25.638Z,1006.79
2018-12-04T08:30:25.621Z,1006.83
2018-12-04T08:31:25.609Z,1006.75
2018-12-04T08:32:25.618Z,1006.85
2018-12-04T08:33:25.615Z,1006.86
2018-12-04T08:34:25.609Z,1006.92
2018-12-04T08:35:25.613Z,1006.93
2018-12-04T08:36:25.557Z,1006.95
2018-12-04T08:37:25.557Z,1007.01
2018-12-04T08:38:25.564Z,1006.99
2018-12-04T08:39:25.563Z,1007.02
2018-12-04T08:40:25.502Z,1007.08
2018-12-04T08:41:25.494Z,1007.06
2018-12-04T08:42:25.480Z,1007.10
2018-12-04T08:43:25.472Z,1007.11
2018-12-04T08:44:25.456Z,1007.18
2018-12-04T08:45:25.452Z,1007.15
2018-12-04T08:46:25.432Z,1007.24
2018-12-04T08:47:25.426Z,1007.27
2018-12-04T08:48:25.417Z,1007.28
2018-12-04T08:49:25.407Z,1007.27
2018-12-04T08:50:25.392Z,1007.29
2018-12-04T08:51:25.379Z,1007.33
2018-12-04T08:52:25.370Z,1007.39
2018-12-04T08:53:25.362Z,1007.44
2018-12-04T08:54:25.344Z,1007.43
2018-12-04T08:55:25.333Z,1007.44
2018-12-04T08:56:25.321Z,1007.48
2018-12-04T08:57:25.316Z,1007.48
2018-12-04T08:58:25.306Z,1007.61
2018-12-04T08:59:25.292Z,1007.55
2018-12-04T09:00:25.284Z,1007.60
2018-12-04T09:01:25.271Z,1007.54
2018-12-04T09:02:25.255Z,1007.63
2018-12-04T09:03:25.243Z,1007.66
2018-12-04T09:04:25.232Z,1007.68
2018-12-04T09:05:25.227Z,1007.75
2018-12-04T09:06:25.211Z,1007.79
2018-12-04T09:07:25.198Z,1007.79
2018-12-04T09:08:25.191Z,1007.82
2018-12-04T09:09:25.178Z,1007.81
2018-12-04T09:10:25.169Z,1007.83
2018-12-04T09:11:25.153Z,1007.90
2018-12-04T09:12:25.151Z,1007.84
2018-12-04T09:13:25.130Z,1007.88
2018-12-04T09:14:25.120Z,1007.99
2018-12-04T09:15:25.109Z,1007.97
2018-12-04T09:16:25.107Z,1008.00
2018-12-04T09:17:25.087Z,1008.06
2018-12-04T09:18:25.102Z,1008.04
2018-12-04T09:19:25.089Z,1008.12
2018-12-04T09:20:25.154Z,1008.19
2018-12-04T09:21:25.067Z,1008.21
2018-12-04T09:22:25.053Z,1008.23
2018-12-04T09:23:25.044Z,1008.25
2018-12-04T09:24:30.557Z,1008.21
2018-12-04T09:25:25.042Z,1008.30
2018-12-04T09:26:25.004Z,1008.32
2018-12-04T09:27:24.984Z,1008.35
2018-12-04T09:28:24.964Z,1008.31
2018-12-04T09:29:24.948Z,1008.44
2018-12-04T09:30:24.960Z,1008.40
2018-12-04T09:31:24.924Z,1008.41
2018-12-04T09:32:24.915Z,1008.46
2018-12-04T09:33:24.902Z,1008.41
2018-12-04T09:34:29.839Z,1008.42
2018-12-04T09:35:24.885Z,1008.42
2018-12-04T09:36:24.872Z,1008.42
2018-12-04T09:37:24.855Z,1008.45
2018-12-04T09:38:24.850Z,1008.47
2018-12-04T09:39:24.840Z,1008.44
2018-12-04T09:40:24.829Z,1008.52
2018-12-04T09:41:24.811Z,1008.54
2018-12-04T09:42:24.798Z,1008.51
2018-12-04T09:43:24.785Z,1008.46
2018-12-04T09:44:24.775Z,1008.57
2018-12-04T09:45:24.763Z,1008.53
2018-12-04T09:46:24.757Z,1008.54
2018-12-04T09:47:24.747Z,1008.55
2018-12-04T09:48:24.737Z,1008.64
2018-12-04T09:49:24.716Z,1008.54
2018-12-04T09:50:24.707Z,1008.51
2018-12-04T09:51:24.696Z,1008.62
2018-12-04T09:52:24.683Z,1008.57
2018-12-04T09:53:25.352Z,1008.58
2018-12-04T09:54:24.659Z,1008.65
2018-12-04T09:55:24.650Z,1008.63
2018-12-04T09:56:24.641Z,1008.62
2018-12-04T09:57:24.633Z,1008.65
2018-12-04T09:58:24.613Z,1008.59
2018-12-04T09:59:24.606Z,1008.67
2018-12-04T10:00:24.599Z,1008.71
2018-12-04T10:01:24.585Z,1008.72
2018-12-04T10:02:24.569Z,1008.74
2018-12-04T10:03:24.557Z,1008.79
2018-12-04T10:04:24.548Z,1008.70
2018-12-04T10:05:24.534Z,1008.65
2018-12-04T10:06:24.528Z,1008.70
2018-12-04T10:07:24.514Z,1008.68
2018-12-04T10:08:24.686Z,1008.72
2018-12-04T10:09:24.489Z,1008.67
2018-12-04T10:10:24.480Z,1008.68
2018-12-04T10:11:24.466Z,1008.71
2018-12-04T10:12:24.455Z,1008.77
2018-12-04T10:13:24.441Z,1008.75
2018-12-04T10:14:24.431Z,1008.76
2018-12-04T10:15:24.419Z,1008.76
2018-12-04T10:16:24.408Z,1008.72
2018-12-04T10:17:24.397Z,1008.83
2018-12-04T10:18:24.415Z,1008.83
2018-12-04T10:19:24.380Z,1008.82
2018-12-04T10:20:24.367Z,1008.81
2018-12-04T10:21:24.357Z,1008.86
2018-12-04T10:22:24.344Z,1008.94
2018-12-04T10:23:24.330Z,1008.90
2018-12-04T10:24:24.317Z,1008.95
2018-12-04T10:25:24.307Z,1008.96
2018-12-04T10:26:24.293Z,1008.98
2018-12-04T10:27:24.288Z,1008.98
2018-12-04T10:28:24.275Z,1008.96
2018-12-04T10:29:24.266Z,1009.06
2018-12-04T10:30:24.248Z,1009.06
2018-12-04T10:31:24.237Z,1009.13
2018-12-04T10:32:24.226Z,1009.07
2018-12-04T10:33:24.213Z,1009.09
2018-12-04T10:34:24.201Z,1009.16
2018-12-04T10:35:24.189Z,1009.11
2018-12-04T10:36:24.181Z,1009.16
2018-12-04T10:37:24.173Z,1009.23
2018-12-04T10:38:24.154Z,1009.18
2018-12-04T10:39:24.145Z,1009.15
2018-12-04T10:40:24.136Z,1009.25
2018-12-04T10:41:24.127Z,1009.24
2018-12-04T10:42:24.112Z,1009.27
2018-12-04T10:43:24.098Z,1009.27
2018-12-04T10:44:24.088Z,1009.31
2018-12-04T10:45:24.080Z,1009.30
2018-12-04T10:46:24.069Z,1009.40
2018-12-04T10:47:24.052Z,1009.35
2018-12-04T10:48:24.043Z,1009.35
2018-12-04T10:49:24.029Z,1009.38
2018-12-04T10:50:24.019Z,1009.39
2018-12-04T10:51:24.006Z,1009.35
2018-12-04T10:52:23.997Z,1009.38
2018-12-04T10:53:23.987Z,1009.42
2018-12-04T10:54:23.973Z,1009.47
2018-12-04T10:55:23.960Z,1009.49
2018-12-04T10:56:23.954Z,1009.45
2018-12-04T10:57:23.939Z,1009.56
2018-12-04T10:58:23.926Z,1009.51
2018-12-04T10:59:23.915Z,1009.38
2018-12-04T11:00:23.908Z,1009.46
2018-12-04T11:01:23.894Z,1009.40
2018-12-04T11:02:23.883Z,1009.48
2018-12-04T11:03:23.877Z,1009.47
2018-12-04T11:04:23.869Z,1009.45
2018-12-04T11:05:23.846Z,1009.49
2018-12-04T11:07:23.823Z,1009.57
2018-12-04T11:08:24.014Z,1009.69
2018-12-04T11:09:23.807Z,1009.64
2018-12-04T11:10:23.791Z,1009.62
2018-12-04T11:11:23.777Z,1009.62
2018-12-04T11:12:23.767Z,1009.72
2018-12-04T11:13:23.757Z,1009.64
2018-12-04T11:14:23.747Z,1009.69
2018-12-04T11:15:23.737Z,1009.65
2018-12-04T11:16:23.721Z,1009.71
2018-12-04T11:17:23.709Z,1009.67
2018-12-04T11:18:23.697Z,1009.69
2018-12-04T11:19:24.434Z,1009.81
2018-12-04T11:20:23.676Z,1009.71
2018-12-04T11:21:23.662Z,1009.74
2018-12-04T11:22:23.653Z,1009.84
2018-12-04T11:23:23.639Z,1009.79
2018-12-04T11:24:23.628Z,1009.85
2018-12-04T11:25:23.618Z,1009.76
2018-12-04T11:26:23.605Z,1009.81
2018-12-04T11:27:23.597Z,1009.92
2018-12-04T11:28:23.587Z,1009.89
2018-12-04T11:29:23.577Z,1009.92
2018-12-04T11:30:23.563Z,1009.91
2018-12-04T11:31:23.549Z,1009.92
2018-12-04T11:32:23.548Z,1010.00
2018-12-04T11:33:23.527Z,1009.97
2018-12-04T11:34:23.518Z,1010.02
2018-12-04T11:35:23.504Z,1010.00
2018-12-04T11:36:23.491Z,1010.01
2018-12-04T11:37:23.479Z,1009.94
2018-12-04T11:38:23.469Z,1010.00
2018-12-04T11:39:23.457Z,1010.03
2018-12-04T11:40:23.452Z,1010.10
2018-12-04T11:41:23.435Z,1010.10
2018-12-04T11:42:23.434Z,1010.15
2018-12-04T11:43:23.423Z,1010.09
2018-12-04T11:44:24.156Z,1010.13
2018-12-04T11:45:23.396Z,1010.19
2018-12-04T11:46:23.377Z,1010.19
2018-12-04T11:47:23.366Z,1010.26
2018-12-04T11:48:23.354Z,1010.22
2018-12-04T11:49:23.344Z,1010.20
2018-12-04T11:50:23.332Z,1010.25
2018-12-04T11:51:23.321Z,1010.27
2018-12-04T11:52:23.310Z,1010.38
2018-12-04T11:53:23.300Z,1010.33
2018-12-04T11:54:23.288Z,1010.30
2018-12-04T11:55:23.277Z,1010.34
2018-12-04T11:56:23.271Z,1010.44
2018-12-04T11:57:23.251Z,1010.38
2018-12-04T11:58:23.249Z,1010.50
2018-12-04T11:59:23.232Z,1010.48
2018-12-04T12:00:23.219Z,1010.48
2018-12-04T12:01:23.208Z,1010.44
2018-12-04T12:02:23.194Z,1010.47
2018-12-04T12:03:23.187Z,1010.56
2018-12-04T12:04:23.172Z,1010.60
2018-12-04T12:05:23.160Z,1010.53
2018-12-04T12:06:23.151Z,1010.54
2018-12-04T12:07:23.142Z,1010.58
2018-12-04T12:08:23.132Z,1010.57
2018-12-04T12:09:23.118Z,1010.55
2018-12-04T12:10:23.102Z,1010.58
2018-12-04T12:11:23.091Z,1010.60
2018-12-04T12:12:23.144Z,1010.63
2018-12-04T12:13:23.075Z,1010.66
2018-12-04T12:14:23.057Z,1010.61
2018-12-04T12:15:23.046Z,1010.64
2018-12-04T12:16:23.033Z,1010.59
2018-12-04T12:17:23.022Z,1010.63
2018-12-04T12:18:23.011Z,1010.68
2018-12-04T12:19:22.999Z,1010.68
2018-12-04T12:20:22.989Z,1010.64
2018-12-04T12:21:22.976Z,1010.67
2018-12-04T12:22:22.965Z,1010.70
2018-12-04T12:23:22.955Z,1010.71
2018-12-04T12:24:22.943Z,1010.72
2018-12-04T12:25:22.931Z,1010.74
2018-12-04T12:26:22.929Z,1010.78
2018-12-04T12:27:22.907Z,1010.87
2018-12-04T12:28:22.896Z,1010.82
2018-12-04T12:29:22.885Z,1010.74
2018-12-04T12:30:22.873Z,1010.87
2018-12-04T12:31:22.864Z,1010.77
2018-12-04T12:32:22.858Z,1010.81